sensor_id;sensor_type;location;lat;lon;timestamp;temperature;humidity
42199;DHT22;27868;45.184;5.786;2022-07-29T00:01:44;27.60;43.70
42199;DHT22;27868;45.184;5.786;2022-07-29T00:04:28;27.60;43.80
42199;DHT22;27868;45.184;5.786;2022-07-29T00:07:13;27.50;44.10
42199;DHT22;27868;45.184;5.786;2022-07-29T00:09:57;27.50;44.30
42199;DHT22;27868;45.184;5.786;2022-07-29T00:12:42;27.40;44.00
42199;DHT22;27868;45.184;5.786;2022-07-29T00:15:26;27.40;43.60
42199;DHT22;27868;45.184;5.786;2022-07-29T00:18:11;27.30;43.60
42199;DHT22;27868;45.184;5.786;2022-07-29T00:20:55;27.40;43.60
42199;DHT22;27868;45.184;5.786;2022-07-29T00:23:40;27.30;43.60
42199;DHT22;27868;45.184;5.786;2022-07-29T00:26:25;27.30;43.80
42199;DHT22;27868;45.184;5.786;2022-07-29T00:29:12;27.20;44.00
42199;DHT22;27868;45.184;5.786;2022-07-29T00:31:56;27.20;44.20
42199;DHT22;27868;45.184;5.786;2022-07-29T00:34:41;27.20;44.10
42199;DHT22;27868;45.184;5.786;2022-07-29T00:37:44;27.20;44.70
42199;DHT22;27868;45.184;5.786;2022-07-29T00:40:29;27.10;44.10
42199;DHT22;27868;45.184;5.786;2022-07-29T00:43:15;27.10;44.70
42199;DHT22;27868;45.184;5.786;2022-07-29T00:46:01;27.10;45.00
42199;DHT22;27868;45.184;5.786;2022-07-29T00:48:46;27.10;45.20
42199;DHT22;27868;45.184;5.786;2022-07-29T00:51:30;27.00;45.20
42199;DHT22;27868;45.184;5.786;2022-07-29T00:54:16;27.00;45.20
42199;DHT22;27868;45.184;5.786;2022-07-29T00:57:01;27.00;45.30
42199;DHT22;27868;45.184;5.786;2022-07-29T00:59:46;27.00;45.60
42199;DHT22;27868;45.184;5.786;2022-07-29T01:02:30;26.90;46.10
42199;DHT22;27868;45.184;5.786;2022-07-29T01:05:18;26.90;46.30
42199;DHT22;27868;45.184;5.786;2022-07-29T01:08:03;26.80;46.40
42199;DHT22;27868;45.184;5.786;2022-07-29T01:10:49;26.80;46.60
42199;DHT22;27868;45.184;5.786;2022-07-29T01:13:36;26.70;46.60
42199;DHT22;27868;45.184;5.786;2022-07-29T01:16:46;26.70;46.70
42199;DHT22;27868;45.184;5.786;2022-07-29T01:19:52;26.70;46.50
42199;DHT22;27868;45.184;5.786;2022-07-29T01:28:52;26.60;46.00
42199;DHT22;27868;45.184;5.786;2022-07-29T01:38:00;26.50;45.90
42199;DHT22;27868;45.184;5.786;2022-07-29T01:44:02;26.40;46.90
42199;DHT22;27868;45.184;5.786;2022-07-29T01:46:58;26.30;47.90
42199;DHT22;27868;45.184;5.786;2022-07-29T01:49:49;26.30;48.50
42199;DHT22;27868;45.184;5.786;2022-07-29T01:55:36;26.20;48.80
42199;DHT22;27868;45.184;5.786;2022-07-29T01:58:23;26.20;49.60
42199;DHT22;27868;45.184;5.786;2022-07-29T02:01:10;26.20;49.10
42199;DHT22;27868;45.184;5.786;2022-07-29T02:03:57;26.10;49.00
42199;DHT22;27868;45.184;5.786;2022-07-29T02:06:44;26.10;49.00
42199;DHT22;27868;45.184;5.786;2022-07-29T02:09:34;26.10;48.90
42199;DHT22;27868;45.184;5.786;2022-07-29T02:12:20;26.10;48.50
42199;DHT22;27868;45.184;5.786;2022-07-29T02:15:07;26.10;48.20
42199;DHT22;27868;45.184;5.786;2022-07-29T02:18:00;26.00;48.10
42199;DHT22;27868;45.184;5.786;2022-07-29T02:20:47;26.00;48.30
42199;DHT22;27868;45.184;5.786;2022-07-29T02:23:35;25.90;47.50
42199;DHT22;27868;45.184;5.786;2022-07-29T02:26:23;25.90;47.50
42199;DHT22;27868;45.184;5.786;2022-07-29T02:29:08;25.90;47.50
42199;DHT22;27868;45.184;5.786;2022-07-29T02:31:55;25.90;47.70
42199;DHT22;27868;45.184;5.786;2022-07-29T02:34:42;25.90;48.00
42199;DHT22;27868;45.184;5.786;2022-07-29T02:37:29;25.90;48.00
42199;DHT22;27868;45.184;5.786;2022-07-29T02:40:15;25.80;48.10
42199;DHT22;27868;45.184;5.786;2022-07-29T02:43:02;25.80;48.10
42199;DHT22;27868;45.184;5.786;2022-07-29T02:45:51;25.70;48.20
42199;DHT22;27868;45.184;5.786;2022-07-29T02:48:43;25.70;49.10
42199;DHT22;27868;45.184;5.786;2022-07-29T02:51:33;25.70;49.40
42199;DHT22;27868;45.184;5.786;2022-07-29T02:57:38;25.60;50.10
42199;DHT22;27868;45.184;5.786;2022-07-29T03:00:28;25.60;49.90
42199;DHT22;27868;45.184;5.786;2022-07-29T03:03:16;25.60;50.30
42199;DHT22;27868;45.184;5.786;2022-07-29T03:06:01;25.50;50.30
42199;DHT22;27868;45.184;5.786;2022-07-29T03:08:47;25.50;49.90
42199;DHT22;27868;45.184;5.786;2022-07-29T03:11:34;25.40;49.00
42199;DHT22;27868;45.184;5.786;2022-07-29T03:14:19;25.40;49.20
42199;DHT22;27868;45.184;5.786;2022-07-29T03:17:05;25.40;49.40
42199;DHT22;27868;45.184;5.786;2022-07-29T03:19:50;25.40;49.10
42199;DHT22;27868;45.184;5.786;2022-07-29T03:22:40;25.40;48.80
42199;DHT22;27868;45.184;5.786;2022-07-29T03:25:28;25.40;48.80
42199;DHT22;27868;45.184;5.786;2022-07-29T03:28:14;25.40;48.70
42199;DHT22;27868;45.184;5.786;2022-07-29T03:30:58;25.30;48.70
42199;DHT22;27868;45.184;5.786;2022-07-29T03:33:42;25.30;48.90
42199;DHT22;27868;45.184;5.786;2022-07-29T03:36:27;25.30;49.00
42199;DHT22;27868;45.184;5.786;2022-07-29T03:39:15;25.30;49.00
42199;DHT22;27868;45.184;5.786;2022-07-29T03:42:02;25.30;49.00
42199;DHT22;27868;45.184;5.786;2022-07-29T03:44:49;25.30;49.00
42199;DHT22;27868;45.184;5.786;2022-07-29T03:47:36;25.20;48.90
42199;DHT22;27868;45.184;5.786;2022-07-29T03:50:21;25.20;49.00
42199;DHT22;27868;45.184;5.786;2022-07-29T03:53:06;25.20;49.20
42199;DHT22;27868;45.184;5.786;2022-07-29T03:55:57;25.20;49.40
42199;DHT22;27868;45.184;5.786;2022-07-29T03:58:44;25.20;50.30
42199;DHT22;27868;45.184;5.786;2022-07-29T04:01:29;25.10;49.60
42199;DHT22;27868;45.184;5.786;2022-07-29T04:04:16;25.10;49.80
42199;DHT22;27868;45.184;5.786;2022-07-29T04:07:02;25.10;50.10
42199;DHT22;27868;45.184;5.786;2022-07-29T04:09:46;25.10;50.40
42199;DHT22;27868;45.184;5.786;2022-07-29T04:12:31;25.10;50.70
42199;DHT22;27868;45.184;5.786;2022-07-29T04:15:16;25.10;51.00
42199;DHT22;27868;45.184;5.786;2022-07-29T04:18:00;25.00;51.10
42199;DHT22;27868;45.184;5.786;2022-07-29T04:20:45;25.00;51.80
42199;DHT22;27868;45.184;5.786;2022-07-29T04:23:30;25.00;51.40
42199;DHT22;27868;45.184;5.786;2022-07-29T04:26:18;25.00;51.50
42199;DHT22;27868;45.184;5.786;2022-07-29T04:29:03;25.00;51.20
42199;DHT22;27868;45.184;5.786;2022-07-29T04:31:47;25.00;50.80
42199;DHT22;27868;45.184;5.786;2022-07-29T04:34:32;25.00;50.70
42199;DHT22;27868;45.184;5.786;2022-07-29T04:37:16;25.00;50.50
42199;DHT22;27868;45.184;5.786;2022-07-29T04:40:01;25.00;50.50
42199;DHT22;27868;45.184;5.786;2022-07-29T04:42:46;25.00;50.50
42199;DHT22;27868;45.184;5.786;2022-07-29T04:45:31;24.90;50.30
42199;DHT22;27868;45.184;5.786;2022-07-29T04:48:15;25.00;50.40
42199;DHT22;27868;45.184;5.786;2022-07-29T04:51:01;25.00;50.80
42199;DHT22;27868;45.184;5.786;2022-07-29T04:53:45;25.00;51.10
42199;DHT22;27868;45.184;5.786;2022-07-29T04:56:30;25.00;50.80
42199;DHT22;27868;45.184;5.786;2022-07-29T04:59:14;24.90;51.50
42199;DHT22;27868;45.184;5.786;2022-07-29T05:01:59;25.00;51.00
42199;DHT22;27868;45.184;5.786;2022-07-29T05:04:43;25.00;50.90
42199;DHT22;27868;45.184;5.786;2022-07-29T05:07:28;25.00;51.20
42199;DHT22;27868;45.184;5.786;2022-07-29T05:10:13;25.00;51.40
42199;DHT22;27868;45.184;5.786;2022-07-29T05:12:57;24.90;51.30
42199;DHT22;27868;45.184;5.786;2022-07-29T05:15:42;24.90;51.80
42199;DHT22;27868;45.184;5.786;2022-07-29T05:18:27;24.90;51.30
42199;DHT22;27868;45.184;5.786;2022-07-29T05:21:11;25.00;51.60
42199;DHT22;27868;45.184;5.786;2022-07-29T05:23:56;25.00;51.80
42199;DHT22;27868;45.184;5.786;2022-07-29T05:26:41;25.00;52.20
42199;DHT22;27868;45.184;5.786;2022-07-29T05:29:25;25.00;52.70
42199;DHT22;27868;45.184;5.786;2022-07-29T05:32:10;25.00;52.50
42199;DHT22;27868;45.184;5.786;2022-07-29T05:34:56;25.10;53.10
42199;DHT22;27868;45.184;5.786;2022-07-29T05:37:41;25.10;53.00
42199;DHT22;27868;45.184;5.786;2022-07-29T05:40:26;25.10;53.50
42199;DHT22;27868;45.184;5.786;2022-07-29T05:43:10;25.10;54.20
42199;DHT22;27868;45.184;5.786;2022-07-29T05:45:55;25.10;54.40
42199;DHT22;27868;45.184;5.786;2022-07-29T05:48:40;25.10;54.60
42199;DHT22;27868;45.184;5.786;2022-07-29T05:51:24;25.10;55.40
42199;DHT22;27868;45.184;5.786;2022-07-29T05:54:09;25.10;55.50
42199;DHT22;27868;45.184;5.786;2022-07-29T05:56:55;25.10;55.20
42199;DHT22;27868;45.184;5.786;2022-07-29T05:59:40;25.10;55.20
42199;DHT22;27868;45.184;5.786;2022-07-29T06:02:24;25.10;55.30
42199;DHT22;27868;45.184;5.786;2022-07-29T06:05:09;25.20;55.20
42199;DHT22;27868;45.184;5.786;2022-07-29T06:07:54;25.20;55.00
42199;DHT22;27868;45.184;5.786;2022-07-29T06:10:38;25.20;54.90
42199;DHT22;27868;45.184;5.786;2022-07-29T06:13:22;25.30;54.90
42199;DHT22;27868;45.184;5.786;2022-07-29T06:16:07;25.30;54.90
42199;DHT22;27868;45.184;5.786;2022-07-29T06:18:51;25.30;54.50
42199;DHT22;27868;45.184;5.786;2022-07-29T06:21:40;25.30;54.10
42199;DHT22;27868;45.184;5.786;2022-07-29T06:24:25;25.30;54.00
42199;DHT22;27868;45.184;5.786;2022-07-29T06:27:12;25.30;54.10
42199;DHT22;27868;45.184;5.786;2022-07-29T06:29:57;25.40;54.60
42199;DHT22;27868;45.184;5.786;2022-07-29T06:32:41;25.40;54.80
42199;DHT22;27868;45.184;5.786;2022-07-29T06:35:26;25.40;54.90
42199;DHT22;27868;45.184;5.786;2022-07-29T06:38:10;25.50;54.80
42199;DHT22;27868;45.184;5.786;2022-07-29T06:40:57;25.60;54.30
42199;DHT22;27868;45.184;5.786;2022-07-29T06:43:45;25.70;53.70
42199;DHT22;27868;45.184;5.786;2022-07-29T06:46:30;25.80;53.10
42199;DHT22;27868;45.184;5.786;2022-07-29T06:49:14;25.90;53.60
42199;DHT22;27868;45.184;5.786;2022-07-29T06:51:58;25.90;52.90
42199;DHT22;27868;45.184;5.786;2022-07-29T06:54:43;26.00;53.10
42199;DHT22;27868;45.184;5.786;2022-07-29T06:57:32;26.00;52.20
42199;DHT22;27868;45.184;5.786;2022-07-29T07:00:17;26.10;52.00
42199;DHT22;27868;45.184;5.786;2022-07-29T07:03:01;26.20;51.50
42199;DHT22;27868;45.184;5.786;2022-07-29T07:05:46;26.20;51.40
42199;DHT22;27868;45.184;5.786;2022-07-29T07:08:31;26.20;51.40
42199;DHT22;27868;45.184;5.786;2022-07-29T07:11:16;26.20;51.40
42199;DHT22;27868;45.184;5.786;2022-07-29T07:14:01;26.20;51.30
42199;DHT22;27868;45.184;5.786;2022-07-29T07:16:45;26.20;50.80
42199;DHT22;27868;45.184;5.786;2022-07-29T07:19:30;26.30;50.60
42199;DHT22;27868;45.184;5.786;2022-07-29T07:22:15;26.30;50.50
42199;DHT22;27868;45.184;5.786;2022-07-29T07:24:59;26.30;50.30
42199;DHT22;27868;45.184;5.786;2022-07-29T07:27:44;26.30;50.00
42199;DHT22;27868;45.184;5.786;2022-07-29T07:30:29;26.30;50.20
42199;DHT22;27868;45.184;5.786;2022-07-29T07:33:14;26.30;50.00
42199;DHT22;27868;45.184;5.786;2022-07-29T07:35:58;26.30;50.00
42199;DHT22;27868;45.184;5.786;2022-07-29T07:38:43;26.30;50.10
42199;DHT22;27868;45.184;5.786;2022-07-29T07:41:28;26.30;49.70
42199;DHT22;27868;45.184;5.786;2022-07-29T07:44:12;26.30;49.90
42199;DHT22;27868;45.184;5.786;2022-07-29T07:46:57;26.30;49.80
42199;DHT22;27868;45.184;5.786;2022-07-29T07:49:41;26.30;50.10
42199;DHT22;27868;45.184;5.786;2022-07-29T07:52:26;26.30;50.10
42199;DHT22;27868;45.184;5.786;2022-07-29T07:55:10;26.30;50.10
42199;DHT22;27868;45.184;5.786;2022-07-29T07:57:55;26.30;50.10
42199;DHT22;27868;45.184;5.786;2022-07-29T08:00:40;26.30;50.30
42199;DHT22;27868;45.184;5.786;2022-07-29T08:03:24;26.30;50.20
42199;DHT22;27868;45.184;5.786;2022-07-29T08:06:08;26.40;50.10
42199;DHT22;27868;45.184;5.786;2022-07-29T08:08:53;26.40;49.90
42199;DHT22;27868;45.184;5.786;2022-07-29T08:11:38;26.40;50.20
42199;DHT22;27868;45.184;5.786;2022-07-29T08:14:23;26.40;50.40
42199;DHT22;27868;45.184;5.786;2022-07-29T08:17:07;26.50;50.60
42199;DHT22;27868;45.184;5.786;2022-07-29T08:19:52;26.50;50.70
42199;DHT22;27868;45.184;5.786;2022-07-29T08:22:37;26.50;50.90
42199;DHT22;27868;45.184;5.786;2022-07-29T08:25:21;26.50;50.80
42199;DHT22;27868;45.184;5.786;2022-07-29T08:28:07;26.60;50.80
42199;DHT22;27868;45.184;5.786;2022-07-29T08:30:52;26.60;51.40
42199;DHT22;27868;45.184;5.786;2022-07-29T08:33:37;26.60;50.80
42199;DHT22;27868;45.184;5.786;2022-07-29T08:36:21;26.60;50.60
42199;DHT22;27868;45.184;5.786;2022-07-29T08:39:06;26.60;50.10
42199;DHT22;27868;45.184;5.786;2022-07-29T08:41:52;26.60;49.90
42199;DHT22;27868;45.184;5.786;2022-07-29T08:44:37;26.60;49.90
42199;DHT22;27868;45.184;5.786;2022-07-29T08:47:21;26.60;49.80
42199;DHT22;27868;45.184;5.786;2022-07-29T08:50:10;26.60;49.80
42199;DHT22;27868;45.184;5.786;2022-07-29T08:52:55;26.60;49.90
42199;DHT22;27868;45.184;5.786;2022-07-29T08:55:45;26.50;50.00
42199;DHT22;27868;45.184;5.786;2022-07-29T08:58:32;26.60;54.30
42199;DHT22;27868;45.184;5.786;2022-07-29T09:01:22;26.50;57.30
42199;DHT22;27868;45.184;5.786;2022-07-29T09:04:11;26.40;59.00
42199;DHT22;27868;45.184;5.786;2022-07-29T09:06:58;26.30;59.20
42199;DHT22;27868;45.184;5.786;2022-07-29T09:09:45;26.20;60.50
42199;DHT22;27868;45.184;5.786;2022-07-29T09:12:30;26.10;61.50
42199;DHT22;27868;45.184;5.786;2022-07-29T09:15:15;26.00;61.60
42199;DHT22;27868;45.184;5.786;2022-07-29T09:17:59;25.90;62.00
42199;DHT22;27868;45.184;5.786;2022-07-29T09:20:51;25.80;61.10
42199;DHT22;27868;45.184;5.786;2022-07-29T09:24:12;25.80;62.00
42199;DHT22;27868;45.184;5.786;2022-07-29T09:26:57;25.70;61.80
42199;DHT22;27868;45.184;5.786;2022-07-29T09:29:41;25.60;63.40
42199;DHT22;27868;45.184;5.786;2022-07-29T09:32:27;25.50;63.50
42199;DHT22;27868;45.184;5.786;2022-07-29T09:35:20;25.40;64.10
42199;DHT22;27868;45.184;5.786;2022-07-29T09:38:12;25.30;65.00
42199;DHT22;27868;45.184;5.786;2022-07-29T09:40:58;25.30;64.70
42199;DHT22;27868;45.184;5.786;2022-07-29T09:43:54;25.30;65.10
42199;DHT22;27868;45.184;5.786;2022-07-29T09:46:38;25.20;65.20
42199;DHT22;27868;45.184;5.786;2022-07-29T09:49:23;25.10;66.10
42199;DHT22;27868;45.184;5.786;2022-07-29T09:52:09;25.10;66.80
42199;DHT22;27868;45.184;5.786;2022-07-29T09:55:09;25.10;67.30
42199;DHT22;27868;45.184;5.786;2022-07-29T09:58:14;25.10;67.30
42199;DHT22;27868;45.184;5.786;2022-07-29T10:01:00;25.00;67.10
42199;DHT22;27868;45.184;5.786;2022-07-29T10:03:51;25.00;67.80
42199;DHT22;27868;45.184;5.786;2022-07-29T10:06:55;25.00;67.80
42199;DHT22;27868;45.184;5.786;2022-07-29T10:09:53;25.00;67.30
42199;DHT22;27868;45.184;5.786;2022-07-29T10:12:58;25.00;67.90
42199;DHT22;27868;45.184;5.786;2022-07-29T10:15:44;25.00;67.90
42199;DHT22;27868;45.184;5.786;2022-07-29T10:18:30;24.90;68.30
42199;DHT22;27868;45.184;5.786;2022-07-29T10:21:15;24.90;68.00
42199;DHT22;27868;45.184;5.786;2022-07-29T10:24:01;24.90;68.20
42199;DHT22;27868;45.184;5.786;2022-07-29T10:26:45;24.90;68.70
42199;DHT22;27868;45.184;5.786;2022-07-29T10:29:31;24.90;68.70
42199;DHT22;27868;45.184;5.786;2022-07-29T10:35:18;24.90;68.90
42199;DHT22;27868;45.184;5.786;2022-07-29T10:38:34;24.90;69.10
42199;DHT22;27868;45.184;5.786;2022-07-29T10:41:39;24.90;68.30
42199;DHT22;27868;45.184;5.786;2022-07-29T10:44:27;24.90;68.90
42199;DHT22;27868;45.184;5.786;2022-07-29T10:47:26;24.80;69.70
42199;DHT22;27868;45.184;5.786;2022-07-29T10:50:11;24.80;69.80
42199;DHT22;27868;45.184;5.786;2022-07-29T10:52:56;24.80;70.20
42199;DHT22;27868;45.184;5.786;2022-07-29T10:55:41;24.80;69.90
42199;DHT22;27868;45.184;5.786;2022-07-29T10:58:30;24.80;70.30
42199;DHT22;27868;45.184;5.786;2022-07-29T11:01:30;24.80;70.40
42199;DHT22;27868;45.184;5.786;2022-07-29T11:04:16;24.80;70.30
42199;DHT22;27868;45.184;5.786;2022-07-29T11:12:58;24.80;70.60
42199;DHT22;27868;45.184;5.786;2022-07-29T11:15:56;24.70;71.30
42199;DHT22;27868;45.184;5.786;2022-07-29T11:19:21;24.80;71.40
42199;DHT22;27868;45.184;5.786;2022-07-29T11:22:08;24.70;70.50
42199;DHT22;27868;45.184;5.786;2022-07-29T11:25:12;24.70;70.60
42199;DHT22;27868;45.184;5.786;2022-07-29T11:28:13;24.60;70.70
42199;DHT22;27868;45.184;5.786;2022-07-29T11:31:01;24.60;71.30
42199;DHT22;27868;45.184;5.786;2022-07-29T11:33:47;24.60;72.00
42199;DHT22;27868;45.184;5.786;2022-07-29T11:36:32;24.60;71.60
42199;DHT22;27868;45.184;5.786;2022-07-29T11:39:26;24.60;70.70
42199;DHT22;27868;45.184;5.786;2022-07-29T11:45:09;24.60;71.50
42199;DHT22;27868;45.184;5.786;2022-07-29T11:47:56;24.60;71.50
42199;DHT22;27868;45.184;5.786;2022-07-29T11:50:42;24.60;72.00
42199;DHT22;27868;45.184;5.786;2022-07-29T11:53:27;24.60;72.20
42199;DHT22;27868;45.184;5.786;2022-07-29T11:56:13;24.60;72.10
42199;DHT22;27868;45.184;5.786;2022-07-29T11:59:06;24.60;72.30
42199;DHT22;27868;45.184;5.786;2022-07-29T12:01:54;24.70;72.00
42199;DHT22;27868;45.184;5.786;2022-07-29T12:04:51;24.70;71.60
42199;DHT22;27868;45.184;5.786;2022-07-29T12:07:38;24.70;71.80
42199;DHT22;27868;45.184;5.786;2022-07-29T12:10:30;24.60;72.20
42199;DHT22;27868;45.184;5.786;2022-07-29T12:13:17;24.60;71.40
42199;DHT22;27868;45.184;5.786;2022-07-29T12:16:01;24.60;70.80
42199;DHT22;27868;45.184;5.786;2022-07-29T12:19:00;24.60;71.70
42199;DHT22;27868;45.184;5.786;2022-07-29T12:21:47;24.60;72.50
42199;DHT22;27868;45.184;5.786;2022-07-29T12:24:43;24.60;72.70
42199;DHT22;27868;45.184;5.786;2022-07-29T12:27:28;24.70;72.70
42199;DHT22;27868;45.184;5.786;2022-07-29T12:30:15;24.70;73.40
42199;DHT22;27868;45.184;5.786;2022-07-29T12:33:00;24.80;73.30
42199;DHT22;27868;45.184;5.786;2022-07-29T12:35:47;24.80;73.50
42199;DHT22;27868;45.184;5.786;2022-07-29T12:38:36;24.90;72.80
42199;DHT22;27868;45.184;5.786;2022-07-29T12:41:20;24.90;73.10
42199;DHT22;27868;45.184;5.786;2022-07-29T12:44:05;25.00;73.00
42199;DHT22;27868;45.184;5.786;2022-07-29T12:47:09;25.00;73.00
42199;DHT22;27868;45.184;5.786;2022-07-29T12:50:14;25.10;72.10
42199;DHT22;27868;45.184;5.786;2022-07-29T12:53:12;25.10;72.60
42199;DHT22;27868;45.184;5.786;2022-07-29T12:55:59;25.20;72.80
42199;DHT22;27868;45.184;5.786;2022-07-29T12:58:46;25.30;71.90
42199;DHT22;27868;45.184;5.786;2022-07-29T13:01:36;25.40;71.40
42199;DHT22;27868;45.184;5.786;2022-07-29T13:04:29;25.60;71.10
42199;DHT22;27868;45.184;5.786;2022-07-29T13:07:27;25.70;69.20
42199;DHT22;27868;45.184;5.786;2022-07-29T13:10:15;25.80;70.50
42199;DHT22;27868;45.184;5.786;2022-07-29T13:16:06;25.90;69.30
42199;DHT22;27868;45.184;5.786;2022-07-29T13:19:08;25.90;67.40
42199;DHT22;27868;45.184;5.786;2022-07-29T13:21:53;26.00;67.50
42199;DHT22;27868;45.184;5.786;2022-07-29T13:27:39;26.20;68.50
42199;DHT22;27868;45.184;5.786;2022-07-29T13:30:24;26.30;67.50
42199;DHT22;27868;45.184;5.786;2022-07-29T13:33:09;26.40;67.90
42199;DHT22;27868;45.184;5.786;2022-07-29T13:35:53;26.50;67.60
42199;DHT22;27868;45.184;5.786;2022-07-29T13:38:39;26.50;66.70
42199;DHT22;27868;45.184;5.786;2022-07-29T13:41:23;26.60;67.30
42199;DHT22;27868;45.184;5.786;2022-07-29T13:44:08;26.70;68.50
42199;DHT22;27868;45.184;5.786;2022-07-29T13:46:53;26.80;67.50
42199;DHT22;27868;45.184;5.786;2022-07-29T13:49:37;26.80;67.00
42199;DHT22;27868;45.184;5.786;2022-07-29T13:52:22;26.90;67.30
42199;DHT22;27868;45.184;5.786;2022-07-29T13:55:07;26.90;65.70
42199;DHT22;27868;45.184;5.786;2022-07-29T13:57:52;27.00;65.20
42199;DHT22;27868;45.184;5.786;2022-07-29T14:00:36;27.10;65.30
42199;DHT22;27868;45.184;5.786;2022-07-29T14:03:21;27.20;65.80
42199;DHT22;27868;45.184;5.786;2022-07-29T14:06:06;27.30;65.30
42199;DHT22;27868;45.184;5.786;2022-07-29T14:08:51;27.30;64.80
42199;DHT22;27868;45.184;5.786;2022-07-29T14:11:35;27.40;64.20
42199;DHT22;27868;45.184;5.786;2022-07-29T14:14:22;27.40;64.40
42199;DHT22;27868;45.184;5.786;2022-07-29T14:17:07;27.40;64.30
42199;DHT22;27868;45.184;5.786;2022-07-29T14:19:51;27.40;64.80
42199;DHT22;27868;45.184;5.786;2022-07-29T14:22:36;27.30;64.30
42199;DHT22;27868;45.184;5.786;2022-07-29T14:25:20;27.30;63.90
42199;DHT22;27868;45.184;5.786;2022-07-29T14:28:05;27.30;63.00
42199;DHT22;27868;45.184;5.786;2022-07-29T14:30:49;27.20;63.70
42199;DHT22;27868;45.184;5.786;2022-07-29T14:33:34;27.20;63.80
42199;DHT22;27868;45.184;5.786;2022-07-29T14:36:18;27.10;63.60
42199;DHT22;27868;45.184;5.786;2022-07-29T14:39:03;27.10;64.40
42199;DHT22;27868;45.184;5.786;2022-07-29T14:41:48;27.10;63.10
42199;DHT22;27868;45.184;5.786;2022-07-29T14:44:33;27.10;62.60
42199;DHT22;27868;45.184;5.786;2022-07-29T14:47:18;27.10;62.90
42199;DHT22;27868;45.184;5.786;2022-07-29T14:50:04;27.20;63.00
42199;DHT22;27868;45.184;5.786;2022-07-29T14:52:49;27.20;63.50
42199;DHT22;27868;45.184;5.786;2022-07-29T14:55:34;27.30;63.00
42199;DHT22;27868;45.184;5.786;2022-07-29T14:58:19;27.30;62.00
42199;DHT22;27868;45.184;5.786;2022-07-29T15:01:06;27.40;61.50
42199;DHT22;27868;45.184;5.786;2022-07-29T15:03:52;27.40;61.60
42199;DHT22;27868;45.184;5.786;2022-07-29T15:06:37;27.40;61.50
42199;DHT22;27868;45.184;5.786;2022-07-29T15:09:22;27.40;60.90
42199;DHT22;27868;45.184;5.786;2022-07-29T15:12:07;27.40;60.60
42199;DHT22;27868;45.184;5.786;2022-07-29T15:14:52;27.40;60.60
42199;DHT22;27868;45.184;5.786;2022-07-29T15:17:37;27.50;60.80
42199;DHT22;27868;45.184;5.786;2022-07-29T15:20:22;27.50;60.30
42199;DHT22;27868;45.184;5.786;2022-07-29T15:23:09;27.50;59.90
42199;DHT22;27868;45.184;5.786;2022-07-29T15:25:54;27.40;59.80
42199;DHT22;27868;45.184;5.786;2022-07-29T15:28:39;27.40;59.20
42199;DHT22;27868;45.184;5.786;2022-07-29T15:31:24;27.50;59.20
42199;DHT22;27868;45.184;5.786;2022-07-29T15:34:09;27.50;59.40
42199;DHT22;27868;45.184;5.786;2022-07-29T15:36:53;27.50;59.20
42199;DHT22;27868;45.184;5.786;2022-07-29T15:39:38;27.40;60.00
42199;DHT22;27868;45.184;5.786;2022-07-29T15:42:23;27.50;59.30
42199;DHT22;27868;45.184;5.786;2022-07-29T15:45:07;27.50;58.90
42199;DHT22;27868;45.184;5.786;2022-07-29T15:47:52;27.50;58.90
42199;DHT22;27868;45.184;5.786;2022-07-29T15:50:36;27.50;58.70
42199;DHT22;27868;45.184;5.786;2022-07-29T15:53:21;27.50;58.60
42199;DHT22;27868;45.184;5.786;2022-07-29T15:56:06;27.50;57.40
42199;DHT22;27868;45.184;5.786;2022-07-29T15:58:51;27.50;57.80
42199;DHT22;27868;45.184;5.786;2022-07-29T16:01:36;27.50;58.40
42199;DHT22;27868;45.184;5.786;2022-07-29T16:04:21;27.50;57.90
42199;DHT22;27868;45.184;5.786;2022-07-29T16:07:05;27.50;57.70
42199;DHT22;27868;45.184;5.786;2022-07-29T16:09:50;27.50;58.10
42199;DHT22;27868;45.184;5.786;2022-07-29T16:12:35;27.50;58.40
42199;DHT22;27868;45.184;5.786;2022-07-29T16:15:19;27.50;58.40
42199;DHT22;27868;45.184;5.786;2022-07-29T16:18:04;27.50;58.20
42199;DHT22;27868;45.184;5.786;2022-07-29T16:20:49;27.50;58.10
42199;DHT22;27868;45.184;5.786;2022-07-29T16:23:33;27.50;58.60
42199;DHT22;27868;45.184;5.786;2022-07-29T16:26:18;27.50;58.60
42199;DHT22;27868;45.184;5.786;2022-07-29T16:29:03;27.50;58.70
42199;DHT22;27868;45.184;5.786;2022-07-29T16:31:48;27.60;58.90
42199;DHT22;27868;45.184;5.786;2022-07-29T16:34:33;27.50;59.10
42199;DHT22;27868;45.184;5.786;2022-07-29T16:37:19;27.50;59.20
42199;DHT22;27868;45.184;5.786;2022-07-29T16:40:04;27.50;59.20
42199;DHT22;27868;45.184;5.786;2022-07-29T16:42:49;27.50;58.70
42199;DHT22;27868;45.184;5.786;2022-07-29T16:45:35;27.50;57.90
42199;DHT22;27868;45.184;5.786;2022-07-29T16:48:20;27.50;57.30
42199;DHT22;27868;45.184;5.786;2022-07-29T16:51:05;27.50;57.40
42199;DHT22;27868;45.184;5.786;2022-07-29T16:53:50;27.50;57.30
42199;DHT22;27868;45.184;5.786;2022-07-29T16:56:35;27.50;57.40
42199;DHT22;27868;45.184;5.786;2022-07-29T16:59:20;27.50;58.40
42199;DHT22;27868;45.184;5.786;2022-07-29T17:02:05;27.50;58.20
42199;DHT22;27868;45.184;5.786;2022-07-29T17:04:50;27.50;58.20
42199;DHT22;27868;45.184;5.786;2022-07-29T17:07:34;27.50;58.30
42199;DHT22;27868;45.184;5.786;2022-07-29T17:10:19;27.50;58.40
42199;DHT22;27868;45.184;5.786;2022-07-29T17:13:05;27.50;57.60
42199;DHT22;27868;45.184;5.786;2022-07-29T17:15:50;27.60;57.70
42199;DHT22;27868;45.184;5.786;2022-07-29T17:18:34;27.50;57.40
42199;DHT22;27868;45.184;5.786;2022-07-29T17:21:19;27.50;58.10
42199;DHT22;27868;45.184;5.786;2022-07-29T17:24:04;27.50;58.20
42199;DHT22;27868;45.184;5.786;2022-07-29T17:26:49;27.50;57.70
42199;DHT22;27868;45.184;5.786;2022-07-29T17:29:33;27.50;57.30
42199;DHT22;27868;45.184;5.786;2022-07-29T17:32:18;27.50;56.60
42199;DHT22;27868;45.184;5.786;2022-07-29T17:35:04;27.40;56.40
42199;DHT22;27868;45.184;5.786;2022-07-29T17:38:09;27.40;56.40
42199;DHT22;27868;45.184;5.786;2022-07-29T17:40:54;27.30;56.10
42199;DHT22;27868;45.184;5.786;2022-07-29T17:43:39;27.30;56.30
42199;DHT22;27868;45.184;5.786;2022-07-29T17:46:26;27.30;56.40
42199;DHT22;27868;45.184;5.786;2022-07-29T17:49:10;27.20;56.60
42199;DHT22;27868;45.184;5.786;2022-07-29T17:51:55;27.20;56.10
42199;DHT22;27868;45.184;5.786;2022-07-29T17:54:39;27.10;56.30
42199;DHT22;27868;45.184;5.786;2022-07-29T17:57:24;27.10;55.90
42199;DHT22;27868;45.184;5.786;2022-07-29T18:00:08;27.10;56.40
42199;DHT22;27868;45.184;5.786;2022-07-29T18:02:53;27.10;56.80
42199;DHT22;27868;45.184;5.786;2022-07-29T18:05:38;27.10;56.40
42199;DHT22;27868;45.184;5.786;2022-07-29T18:08:22;27.00;57.10
42199;DHT22;27868;45.184;5.786;2022-07-29T18:11:07;27.00;57.30
42199;DHT22;27868;45.184;5.786;2022-07-29T18:13:52;27.00;57.60